»·PEaware :: N9229P KMYF-KNYL

N9229P :: KMYF-KNYL

FLIGHT INFORMATION

Flight Status: Arrived
Operator: Privately registered:
United States
More flights under this callsign
Pilot: James W. (24810)
Aircraft: PIPER PA-24 COMMANCHE
(PA24)
More flights by this aircraft type
Origin: KMYF Montgomery
United States
Destination: KNYL Yuma MCAS/Yuma Intl
United States
More flights between these airports :: More routes between these airports
Route: MZB V66 HEEDS CAZZI
File this flight plan on PilotEdge
Remarks:
Altitude:
(Current/Filed)
11,000ft
Speed:
(Current/Filed)
170kts
Departed: 21-Jan-21 12:26 PM
Arrived: 21-Jan-21 01:26 PM
Distance/Time
Traveled:
128nm/1:00
Distance/Time
To Go:
Arrived

Flight Plot

Page will automatically refresh every two minutes.

Flight plan parsing failed; only flown route is shown


Map Options




Map Legend


Flown Route
Filed Route
Departure Airport
Arrival Airport
Navaid (VOR, NDB)
Fix

Horizontal Profiles

Position Reports

Time Latitude Longitude Heading Altitude Ground
Speed
21-Jan-21 12:07 32.813417 -117.141513 22 425ft 0kts
21-Jan-21 12:08 32.813417 -117.141513 22 425ft 0kts
21-Jan-21 12:09 32.813417 -117.141513 22 425ft 0kts
21-Jan-21 12:10 32.813417 -117.141513 22 425ft 0kts
21-Jan-21 12:11 32.813417 -117.141513 22 425ft 0kts
21-Jan-21 12:12 32.813417 -117.141513 22 425ft 0kts
21-Jan-21 12:13 32.813417 -117.141513 22 425ft 0kts
21-Jan-21 12:14 32.813417 -117.141513 22 425ft 0kts
21-Jan-21 12:15 32.813417 -117.141513 22 425ft 0kts
21-Jan-21 12:16 32.813417 -117.141513 22 425ft 0kts
21-Jan-21 12:17 32.813417 -117.141513 22 425ft 0kts
21-Jan-21 12:18 32.813417 -117.141513 22 425ft 0kts
21-Jan-21 12:19 32.813507 -117.141420 54 425ft 3kts
21-Jan-21 12:20 32.814078 -117.140080 117 425ft 6kts
21-Jan-21 12:21 32.812818 -117.136865 115 425ft 13kts
21-Jan-21 12:22 32.811195 -117.133012 116 425ft 10kts
21-Jan-21 12:23 32.812044 -117.131494 24 425ft 0kts
21-Jan-21 12:24 32.812634 -117.131179 12 425ft 13kts
21-Jan-21 12:25 32.820773 -117.154800 281 1143ft 118kts
21-Jan-21 12:26 32.827716 -117.198486 281 2362ft 143kts
21-Jan-21 12:27 32.835046 -117.245040 281 3562ft 143kts
21-Jan-21 12:28 32.835942 -117.289126 221 4755ft 139kts
21-Jan-21 12:29 32.809815 -117.265202 111 5939ft 145kts
21-Jan-21 12:30 32.791523 -117.213931 111 6015ft 181kts
21-Jan-21 12:31 32.780097 -117.156682 85 6016ft 180kts
21-Jan-21 12:32 32.780625 -117.096158 88 6018ft 183kts
21-Jan-21 12:33 32.779825 -117.035773 88 6015ft 183kts
21-Jan-21 12:34 32.779011 -116.978461 88 6625ft 165kts
21-Jan-21 12:35 32.778283 -116.925844 87 7576ft 154kts
21-Jan-21 12:37 32.777558 -116.876065 87 8570ft 148kts
21-Jan-21 12:38 32.776820 -116.827991 87 9561ft 144kts
21-Jan-21 12:39 32.776088 -116.781149 87 10554ft 140kts
21-Jan-21 12:40 32.775329 -116.732569 87 11002ft 163kts
21-Jan-21 12:41 32.774295 -116.676146 87 11000ft 174kts
21-Jan-21 12:42 32.773278 -116.618019 87 10999ft 175kts
21-Jan-21 12:43 32.772253 -116.559909 87 10998ft 176kts
21-Jan-21 12:44 32.771276 -116.501811 87 10996ft 176kts
21-Jan-21 12:45 32.770231 -116.443554 87 10994ft 176kts
21-Jan-21 12:46 32.769188 -116.385308 87 11036ft 174kts
21-Jan-21 12:47 32.767988 -116.327103 88 11045ft 176kts
21-Jan-21 12:48 32.766826 -116.268825 88 11042ft 177kts
21-Jan-21 12:49 32.765626 -116.210260 88 11039ft 177kts
21-Jan-21 12:50 32.764394 -116.151552 88 11036ft 177kts
21-Jan-21 12:50 32.763353 -116.102863 88 11036ft 177kts
21-Jan-21 12:52 32.761861 -116.034506 88 11035ft 177kts
21-Jan-21 12:53 32.760565 -115.976111 88 11035ft 177kts
21-Jan-21 12:53 32.759459 -115.927204 88 11035ft 177kts
21-Jan-21 12:55 32.757869 -115.858871 88 11035ft 177kts
21-Jan-21 12:56 32.756478 -115.800340 88 11035ft 177kts
21-Jan-21 12:56 32.755304 -115.751706 88 11035ft 177kts
21-Jan-21 12:57 32.753865 -115.693009 88 11035ft 177kts
21-Jan-21 12:58 32.752399 -115.634518 88 11033ft 177kts
21-Jan-21 12:59 32.750906 -115.576006 88 11030ft 177kts
21-Jan-21 13:00 32.749388 -115.517554 88 11027ft 177kts
21-Jan-21 13:01 32.749997 -115.459064 84 11024ft 176kts
21-Jan-21 13:02 32.751760 -115.400849 84 11022ft 176kts
21-Jan-21 13:03 32.753173 -115.342339 85 11021ft 176kts
21-Jan-21 13:05 32.754736 -115.274205 85 11020ft 176kts
21-Jan-21 13:05 32.755833 -115.225447 85 11000ft 177kts
21-Jan-21 13:06 32.757821 -115.166210 73 10625ft 182kts
21-Jan-21 13:07 32.774947 -115.109858 70 9930ft 179kts
21-Jan-21 13:08 32.791404 -115.054617 71 9226ft 176kts
21-Jan-21 13:09 32.807710 -114.999772 71 8526ft 176kts
21-Jan-21 13:10 32.824064 -114.944686 71 7827ft 177kts
21-Jan-21 13:11 32.840502 -114.889211 71 7126ft 178kts
21-Jan-21 13:12 32.856952 -114.833595 70 6424ft 178kts
21-Jan-21 13:13 32.873366 -114.777883 70 5721ft 179kts
21-Jan-21 13:14 32.889873 -114.721972 70 5037ft 178kts
21-Jan-21 13:15 32.905421 -114.669157 70 4998ft 163kts
21-Jan-21 13:16 32.907394 -114.618396 128 4998ft 165kts
21-Jan-21 13:17 32.875364 -114.575625 129 4431ft 181kts
21-Jan-21 13:18 32.841357 -114.530186 130 3725ft 184kts
21-Jan-21 13:19 32.800345 -114.505356 193 3005ft 168kts
21-Jan-21 13:20 32.758289 -114.519648 195 2299ft 149kts
21-Jan-21 13:21 32.720221 -114.534004 216 1798ft 130kts
21-Jan-21 13:22 32.697378 -114.559856 224 1454ft 93kts
21-Jan-21 13:23 32.678910 -114.581106 223 955ft 95kts
21-Jan-21 13:24 32.662241 -114.600223 223 219ft 62kts
21-Jan-21 13:25 32.659509 -114.603571 248 212ft 0kts
21-Jan-21 13:26 32.659789 -114.606045 254 212ft 11kts
21-Jan-21 13:27 32.660100 -114.609944 351 212ft 20kts
21-Jan-21 13:28 32.661344 -114.610196 347 212ft 0kts
21-Jan-21 13:29 32.661344 -114.610196 347 212ft 0kts
21-Jan-21 13:30 32.661344 -114.610196 347 212ft 0kts

Navigation Log

Ident Type
Flight plan parsing failed, navigation log unavailable